Time;durP1;ratioP1;P1;durP2;ratioP2;P2;SDS_P1;SDS_P2;PMS_P1;PMS_P2;Temp;Humidity;BMP_temperature;BMP_pressure;BME280_temperature;BME280_humidity;BME280_pressure;Samples;Min_cycle;Max_cycle;Signal;HPM_P1;HPM_P2
2021/03/10 00:01:35;;;;;;;9.07;6.40;;;5.80;99.90;;;;;;4972610;28;20187;-63
2021/03/10 00:04:01;;;;;;;7.60;6.80;;;5.80;99.90;;;;;;4972612;28;20317;-63
2021/03/10 00:06:26;;;;;;;8.87;6.87;;;5.80;99.90;;;;;;4973153;28;20170;-65
2021/03/10 00:08:52;;;;;;;9.27;6.77;;;5.80;99.90;;;;;;4972459;28;20730;-63
2021/03/10 00:11:17;;;;;;;9.27;6.73;;;5.70;99.90;;;;;;4972426;28;20176;-63
2021/03/10 00:13:43;;;;;;;7.97;6.60;;;5.70;99.90;;;;;;4972839;28;20182;-64
2021/03/10 00:16:08;;;;;;;9.17;6.77;;;5.70;99.90;;;;;;4972591;28;20182;-64
2021/03/10 00:18:34;;;;;;;13.60;7.13;;;5.70;99.90;;;;;;4972958;28;20675;-63
2021/03/10 00:21:00;;;;;;;13.07;7.70;;;5.70;99.90;;;;;;4972021;28;20178;-64
2021/03/10 00:23:25;;;;;;;10.70;7.77;;;5.60;99.90;;;;;;4972501;28;20202;-63
2021/03/10 00:25:51;;;;;;;14.47;7.57;;;5.70;99.90;;;;;;4972421;28;20174;-64
2021/03/10 00:28:16;;;;;;;11.63;7.43;;;5.60;99.90;;;;;;4972444;28;20204;-64
2021/03/10 00:30:42;;;;;;;12.43;8.03;;;5.60;99.90;;;;;;4972094;28;20181;-64
2021/03/10 00:33:08;;;;;;;10.73;7.50;;;5.60;99.90;;;;;;4972784;28;20174;-63
2021/03/10 00:35:33;;;;;;;8.80;7.33;;;5.60;99.90;;;;;;4972440;28;20192;-64
2021/03/10 00:38:00;;;;;;;9.93;7.17;;;5.60;99.90;;;;;;4972399;28;20236;-63
2021/03/10 00:40:27;;;;;;;10.23;8.07;;;5.60;99.90;;;;;;4971726;28;20256;-65
2021/03/10 00:42:53;;;;;;;11.60;8.33;;;5.60;99.90;;;;;;4972223;28;20221;-63
2021/03/10 00:45:19;;;;;;;10.40;7.63;;;5.60;99.90;;;;;;4971895;28;20190;-63
2021/03/10 00:47:45;;;;;;;10.60;7.40;;;5.60;99.90;;;;;;4972482;28;20173;-63
2021/03/10 00:50:13;;;;;;;8.13;7.07;;;5.60;99.90;;;;;;4971903;28;20213;-63
2021/03/10 00:52:39;;;;;;;9.70;7.17;;;5.60;99.90;;;;;;4972302;28;20173;-63
2021/03/10 00:55:05;;;;;;;15.20;7.30;;;5.60;99.90;;;;;;4972431;28;20268;-64
2021/03/10 00:57:30;;;;;;;9.97;7.57;;;5.60;99.90;;;;;;4972205;28;20590;-62
2021/03/10 00:59:56;;;;;;;10.37;7.20;;;5.60;99.90;;;;;;4971984;28;20265;-61
2021/03/10 01:02:22;;;;;;;10.20;7.20;;;5.60;99.90;;;;;;4971751;28;20174;-62
2021/03/10 01:04:47;;;;;;;8.20;7.03;;;5.60;99.90;;;;;;4971780;28;20621;-63
2021/03/10 01:07:13;;;;;;;8.47;6.77;;;5.60;99.90;;;;;;4972113;28;20606;-63
2021/03/10 01:09:39;;;;;;;12.90;8.10;;;5.50;99.90;;;;;;4972481;28;20236;-63
2021/03/10 01:12:05;;;;;;;10.27;8.67;;;5.40;99.90;;;;;;4952738;29;20206;-64
2021/03/10 01:14:31;;;;;;;10.00;7.73;;;5.40;99.90;;;;;;4952744;29;20206;-64
2021/03/10 01:16:56;;;;;;;14.47;7.97;;;5.30;99.90;;;;;;4970535;28;20190;-64
2021/03/10 01:19:22;;;;;;;11.93;9.07;;;5.30;99.90;;;;;;4971983;28;20201;-63
2021/03/10 01:21:47;;;;;;;15.90;10.23;;;5.30;99.90;;;;;;4971537;28;20644;-63
2021/03/10 01:24:13;;;;;;;13.03;8.50;;;5.30;99.90;;;;;;4971846;28;20209;-64
2021/03/10 01:26:39;;;;;;;10.73;8.30;;;5.30;99.90;;;;;;4971350;28;20182;-63
2021/03/10 01:29:04;;;;;;;13.83;10.40;;;5.30;99.90;;;;;;4972002;28;20275;-62
2021/03/10 01:31:30;;;;;;;19.73;9.50;;;5.30;99.90;;;;;;4971426;28;20181;-62
2021/03/10 01:33:56;;;;;;;12.57;8.90;;;5.30;99.90;;;;;;4972093;28;20185;-63
2021/03/10 01:36:21;;;;;;;11.47;8.30;;;5.30;99.90;;;;;;4971484;28;20205;-63
2021/03/10 01:38:47;;;;;;;10.07;7.40;;;5.40;99.90;;;;;;4971531;28;20213;-63
2021/03/10 01:41:13;;;;;;;12.83;8.17;;;5.30;99.90;;;;;;4971336;28;20181;-63
2021/03/10 01:43:39;;;;;;;12.90;8.40;;;5.40;99.90;;;;;;4971668;28;20272;-65
2021/03/10 01:46:05;;;;;;;12.50;8.20;;;5.30;99.90;;;;;;4971837;28;20551;-65
2021/03/10 01:48:31;;;;;;;14.60;8.33;;;5.30;99.90;;;;;;4954440;28;20709;-63
2021/03/10 01:50:57;;;;;;;10.83;7.30;;;5.40;99.90;;;;;;4971500;28;20181;-62
2021/03/10 01:53:22;;;;;;;10.63;7.13;;;5.30;99.90;;;;;;4971672;28;20249;-63
2021/03/10 01:55:50;;;;;;;9.73;7.03;;;5.30;99.90;;;;;;4971864;28;20604;-63
2021/03/10 01:58:17;;;;;;;8.87;6.37;;;5.30;99.90;;;;;;4975271;28;20198;-63
2021/03/10 02:00:42;;;;;;;6.90;6.20;;;5.30;99.90;;;;;;4974634;28;20647;-62
2021/03/10 02:03:08;;;;;;;7.80;6.57;;;5.30;99.90;;;;;;4974922;28;20197;-64
2021/03/10 02:05:34;;;;;;;7.23;6.53;;;5.30;99.90;;;;;;4974726;28;20566;-64
2021/03/10 02:08:38;;;;;;;8.47;6.80;;;5.30;99.90;;;;;;4975142;28;20233;-63
2021/03/10 02:11:27;;;;;;;8.43;7.37;;;5.30;99.90;;;;;;4922967;29;20198;-65
2021/03/10 02:14:10;;;;;;;8.47;6.87;;;5.40;99.90;;;;;;4957963;28;20174;-62
2021/03/10 02:16:57;;;;;;;11.27;6.90;;;5.40;99.90;;;;;;4957550;28;20186;-64
2021/03/10 02:19:48;;;;;;;8.67;6.93;;;5.40;99.90;;;;;;4974435;28;20197;-64
2021/03/10 02:22:36;;;;;;;9.10;7.20;;;5.30;99.90;;;;;;4974478;28;20181;-64
2021/03/10 02:25:21;;;;;;;10.00;7.47;;;5.30;99.90;;;;;;4963566;28;20217;-64
2021/03/10 02:27:50;;;;;;;10.57;8.17;;;5.30;99.90;;;;;;4974897;28;20188;-64
2021/03/10 02:30:23;;;;;;;10.37;8.20;;;5.30;99.90;;;;;;4973927;28;20176;-65
2021/03/10 02:33:00;;;;;;;11.03;8.50;;;5.30;99.90;;;;;;4974776;28;20181;-64
2021/03/10 02:35:28;;;;;;;12.13;9.63;;;5.40;99.90;;;;;;4974126;28;20176;-63
2021/03/10 02:37:57;;;;;;;10.30;9.17;;;5.40;99.90;;;;;;4974927;28;20201;-65
2021/03/10 02:40:25;;;;;;;16.73;10.37;;;5.40;99.90;;;;;;4973863;28;20239;-64
2021/03/10 02:42:52;;;;;;;14.07;10.93;;;5.40;99.90;;;;;;4974071;28;20169;-62
2021/03/10 02:45:21;;;;;;;14.97;11.20;;;5.30;99.90;;;;;;4974015;28;20264;-64
2021/03/10 02:47:47;;;;;;;17.00;12.43;;;5.30;99.90;;;;;;4974387;28;20541;-64
2021/03/10 02:50:14;;;;;;;15.00;11.37;;;5.30;99.90;;;;;;4956392;28;20181;-64
2021/03/10 02:52:40;;;;;;;19.27;13.30;;;5.30;99.90;;;;;;4974491;28;20598;-64
2021/03/10 02:55:06;;;;;;;16.77;12.93;;;5.20;99.90;;;;;;4974140;28;20192;-64
2021/03/10 02:57:33;;;;;;;16.67;13.10;;;5.20;99.90;;;;;;4973430;28;20686;-63
2021/03/10 03:00:11;;;;;;;20.07;13.13;;;5.20;99.90;;;;;;4973676;28;20177;-64
2021/03/10 03:02:38;;;;;;;16.10;12.77;;;5.20;99.90;;;;;;4973940;28;20263;-63
2021/03/10 03:05:05;;;;;;;21.13;13.80;;;5.20;99.90;;;;;;4973545;28;20251;-65
2021/03/10 03:07:31;;;;;;;17.57;13.63;;;5.10;99.90;;;;;;4955825;28;20169;-63
2021/03/10 03:10:04;;;;;;;20.17;14.60;;;5.10;99.90;;;;;;4973579;28;20265;-63
2021/03/10 03:12:31;;;;;;;18.13;14.37;;;5.00;99.90;;;;;;4973742;28;20169;-63
2021/03/10 03:14:58;;;;;;;20.23;14.73;;;4.90;99.90;;;;;;4973603;28;20236;-64
2021/03/10 03:17:25;;;;;;;19.87;13.80;;;4.80;99.90;;;;;;4973514;28;20184;-63
2021/03/10 03:19:51;;;;;;;21.37;15.50;;;4.80;99.90;;;;;;4973499;28;20221;-63
2021/03/10 03:22:18;;;;;;;20.53;15.17;;;4.70;99.90;;;;;;4973444;28;20659;-63
2021/03/10 03:24:46;;;;;;;20.60;15.07;;;4.60;99.90;;;;;;4956358;28;20213;-64
2021/03/10 03:27:25;;;;;;;21.07;15.53;;;4.60;99.90;;;;;;4973261;28;20185;-66
2021/03/10 03:29:54;;;;;;;21.00;14.67;;;4.60;99.90;;;;;;4973296;28;20186;-63
2021/03/10 03:32:22;;;;;;;26.73;17.13;;;4.60;99.90;;;;;;4954047;29;20166;-64
2021/03/10 03:34:48;;;;;;;24.63;16.63;;;4.50;99.90;;;;;;4970717;28;20181;-64
2021/03/10 03:37:14;;;;;;;21.70;16.03;;;4.50;99.90;;;;;;4973081;28;20233;-63
2021/03/10 03:39:40;;;;;;;24.30;16.50;;;4.40;99.90;;;;;;4973251;28;20205;-63
2021/03/10 03:42:06;;;;;;;24.20;17.53;;;4.30;99.90;;;;;;4973212;28;20181;-63
2021/03/10 03:44:32;;;;;;;28.37;17.97;;;4.30;99.90;;;;;;4973235;28;20259;-65
2021/03/10 03:46:58;;;;;;;27.47;19.33;;;4.30;99.90;;;;;;4973036;28;20694;-65
2021/03/10 03:49:24;;;;;;;31.83;19.97;;;4.20;99.90;;;;;;4973216;28;20682;-65
2021/03/10 03:51:49;;;;;;;31.27;19.17;;;4.20;99.90;;;;;;4972889;28;20181;-65
2021/03/10 03:54:15;;;;;;;30.47;20.67;;;4.10;99.90;;;;;;4973053;28;20620;-66
2021/03/10 03:56:40;;;;;;;30.30;20.20;;;4.20;99.90;;;;;;4973067;28;20276;-65
2021/03/10 03:59:06;;;;;;;33.53;20.87;;;4.20;99.90;;;;;;4973051;28;20189;-64
2021/03/10 04:01:32;;;;;;;29.33;20.53;;;4.10;99.90;;;;;;4972325;28;20177;-65
2021/03/10 04:03:57;;;;;;;30.70;21.53;;;4.10;99.90;;;;;;4973210;28;20208;-65
2021/03/10 04:06:23;;;;;;;37.87;22.13;;;4.10;99.90;;;;;;4972599;28;20228;-63
2021/03/10 04:08:48;;;;;;;34.27;22.70;;;4.10;99.90;;;;;;4972865;28;20193;-63
2021/03/10 04:11:17;;;;;;;31.93;20.93;;;4.10;99.90;;;;;;4972241;28;20169;-63
2021/03/10 04:13:43;;;;;;;32.80;21.03;;;4.10;99.90;;;;;;4972997;28;20185;-65
2021/03/10 04:16:09;;;;;;;31.70;22.60;;;4.10;99.90;;;;;;4972660;28;20181;-65
2021/03/10 04:18:38;;;;;;;31.90;21.50;;;4.10;99.90;;;;;;4972191;28;20216;-65
2021/03/10 04:21:06;;;;;;;40.20;24.13;;;4.10;99.90;;;;;;4971830;28;20320;-63
2021/03/10 04:23:32;;;;;;;36.57;23.07;;;4.20;99.90;;;;;;4971590;28;20201;-65
2021/03/10 04:25:58;;;;;;;37.53;24.03;;;4.30;99.90;;;;;;4955290;28;20184;-63
2021/03/10 04:28:23;;;;;;;40.17;24.33;;;4.30;99.90;;;;;;4972463;28;20197;-63
2021/03/10 04:30:49;;;;;;;42.40;25.23;;;4.40;99.90;;;;;;4972166;28;20686;-63
2021/03/10 04:33:15;;;;;;;37.63;24.67;;;4.50;99.90;;;;;;4972309;28;20178;-63
2021/03/10 04:35:40;;;;;;;48.20;28.03;;;4.60;99.90;;;;;;4954906;28;20721;-64
2021/03/10 04:38:06;;;;;;;47.43;29.67;;;4.70;99.90;;;;;;4972606;28;20544;-63
2021/03/10 04:40:31;;;;;;;44.67;27.40;;;4.80;99.90;;;;;;4971610;28;20227;-64
2021/03/10 04:42:57;;;;;;;45.53;25.20;;;4.80;99.90;;;;;;4972243;28;20232;-63
2021/03/10 04:45:23;;;;;;;41.70;25.43;;;4.80;99.90;;;;;;4972078;28;20249;-63
2021/03/10 04:47:48;;;;;;;39.60;24.93;;;4.90;99.90;;;;;;4972514;28;20189;-64
2021/03/10 04:50:16;;;;;;;37.17;24.23;;;4.90;99.90;;;;;;4971647;28;20296;-64
2021/03/10 04:52:43;;;;;;;47.67;27.27;;;4.90;99.90;;;;;;4972788;28;20161;-62
2021/03/10 04:55:09;;;;;;;53.93;29.70;;;5.00;99.90;;;;;;4972042;28;20177;-64
2021/03/10 04:57:36;;;;;;;55.20;28.63;;;5.00;99.90;;;;;;4971844;28;20185;-63
2021/03/10 05:00:03;;;;;;;41.57;26.77;;;5.10;99.90;;;;;;4972172;28;20201;-63
2021/03/10 05:02:29;;;;;;;40.47;25.47;;;5.10;99.90;;;;;;4971030;28;20548;-63
2021/03/10 05:04:54;;;;;;;45.77;25.60;;;5.10;99.90;;;;;;4972203;28;20208;-65
2021/03/10 05:07:20;;;;;;;42.87;25.20;;;5.20;99.90;;;;;;4972000;28;20248;-63
2021/03/10 05:09:45;;;;;;;42.17;25.73;;;5.20;99.90;;;;;;4972057;28;20190;-63
2021/03/10 05:12:11;;;;;;;40.70;25.23;;;5.20;99.90;;;;;;4972018;28;20555;-63
2021/03/10 05:14:37;;;;;;;40.20;25.40;;;5.20;99.90;;;;;;4972004;28;20177;-60
2021/03/10 05:17:02;;;;;;;38.47;24.40;;;5.20;99.90;;;;;;4971887;28;20332;-63
2021/03/10 05:19:28;;;;;;;39.10;23.17;;;5.10;99.90;;;;;;4971670;28;20210;-63
2021/03/10 05:21:54;;;;;;;34.53;24.60;;;5.10;99.90;;;;;;4971996;28;20177;-64
2021/03/10 05:24:19;;;;;;;32.90;21.37;;;5.10;99.90;;;;;;4971780;28;20698;-63
2021/03/10 05:26:45;;;;;;;32.83;21.20;;;5.20;99.90;;;;;;4954383;28;20644;-63
2021/03/10 05:29:11;;;;;;;37.23;23.00;;;5.20;99.90;;;;;;4971847;28;20185;-64
2021/03/10 05:31:36;;;;;;;35.17;22.07;;;5.30;99.90;;;;;;4972868;28;20686;-63
2021/03/10 05:34:02;;;;;;;34.80;21.00;;;5.30;99.90;;;;;;4975913;28;20174;-63
2021/03/10 05:36:28;;;;;;;35.23;22.00;;;5.20;99.90;;;;;;4975299;28;20324;-63
2021/03/10 05:38:53;;;;;;;36.83;22.63;;;5.30;99.90;;;;;;4975421;28;20212;-64
2021/03/10 05:41:19;;;;;;;41.00;23.77;;;5.20;99.90;;;;;;4974709;28;20182;-63
2021/03/10 05:43:45;;;;;;;43.60;24.43;;;5.20;99.90;;;;;;4975747;28;20211;-66
2021/03/10 05:46:11;;;;;;;39.67;24.80;;;5.40;99.90;;;;;;4957705;28;20182;-63
2021/03/10 05:48:38;;;;;;;40.93;24.47;;;5.40;99.90;;;;;;4974944;28;20202;-63
2021/03/10 05:51:04;;;;;;;37.07;24.13;;;5.40;99.90;;;;;;4974912;28;20173;-64
2021/03/10 05:53:37;;;;;;;43.10;25.50;;;5.40;99.90;;;;;;4975063;28;20589;-64
2021/03/10 05:56:04;;;;;;;37.27;24.23;;;5.40;99.90;;;;;;4975458;28;20201;-63
2021/03/10 05:58:29;;;;;;;40.60;24.77;;;5.40;99.90;;;;;;4974821;28;20205;-63
2021/03/10 06:00:55;;;;;;;42.23;23.80;;;5.50;99.90;;;;;;4974824;28;20173;-63
2021/03/10 06:03:21;;;;;;;35.00;23.70;;;5.50;99.90;;;;;;4974433;28;20710;-63
2021/03/10 06:05:58;;;;;;;39.70;24.80;;;5.50;99.90;;;;;;4974708;28;20201;-63
2021/03/10 06:08:28;;;;;;;36.77;23.70;;;5.40;99.90;;;;;;4974967;28;20268;-63
2021/03/10 06:10:54;;;;;;;34.17;22.73;;;5.40;99.90;;;;;;4974621;28;20185;-63
2021/03/10 06:13:20;;;;;;;33.83;22.13;;;5.30;99.90;;;;;;4974776;28;20572;-65
2021/03/10 06:15:46;;;;;;;34.67;22.17;;;5.30;99.90;;;;;;4974865;28;20248;-63
2021/03/10 06:18:25;;;;;;;34.67;21.43;;;5.20;99.90;;;;;;4974960;28;20264;-63
2021/03/10 06:21:11;;;;;;;36.80;21.70;;;5.20;99.90;;;;;;4974258;28;20582;-62
2021/03/10 06:23:49;;;;;;;36.80;22.33;;;5.20;99.90;;;;;;4974705;28;20248;-63
2021/03/10 06:26:26;;;;;;;35.80;22.97;;;5.10;99.90;;;;;;4974597;28;20369;-63
2021/03/10 06:28:53;;;;;;;34.83;21.73;;;5.10;99.90;;;;;;4974753;28;20192;-63
2021/03/10 06:31:19;;;;;;;32.27;21.93;;;5.10;99.90;;;;;;4973991;28;20186;-63
2021/03/10 06:33:56;;;;;;;34.77;22.60;;;5.10;99.90;;;;;;4974523;28;20615;-63
2021/03/10 06:36:23;;;;;;;34.57;21.97;;;5.00;99.90;;;;;;4974079;28;20220;-63
2021/03/10 06:38:50;;;;;;;35.97;23.20;;;5.00;99.90;;;;;;4974326;28;20817;-64
2021/03/10 06:41:46;;;;;;;38.17;22.20;;;5.10;99.90;;;;;;4973797;28;20188;-67
2021/03/10 06:44:18;;;;;;;38.33;22.90;;;5.00;99.90;;;;;;4973657;28;20232;-67
2021/03/10 06:46:58;;;;;;;37.17;22.27;;;5.00;99.90;;;;;;4973966;28;20276;-65
2021/03/10 06:49:25;;;;;;;40.00;24.00;;;5.00;99.90;;;;;;4974823;28;20655;-66
2021/03/10 06:51:57;;;;;;;41.23;24.03;;;5.00;99.90;;;;;;4974258;28;20185;-65
2021/03/10 06:54:27;;;;;;;40.20;23.40;;;5.10;99.90;;;;;;4973889;28;20178;-67
2021/03/10 06:57:04;;;;;;;41.77;24.23;;;5.10;99.90;;;;;;4974366;28;20256;-66
2021/03/10 06:59:50;;;;;;;33.83;22.40;;;5.20;99.90;;;;;;4973569;28;20297;-65
2021/03/10 07:02:18;;;;;;;40.23;23.27;;;5.20;99.90;;;;;;4973737;28;20179;-63
2021/03/10 07:04:52;;;;;;;35.50;21.10;;;5.30;99.90;;;;;;4973822;28;20256;-65
2021/03/10 07:07:18;;;;;;;38.93;22.30;;;5.30;99.90;;;;;;4973941;28;20181;-64
2021/03/10 07:09:45;;;;;;;33.47;22.83;;;5.40;99.90;;;;;;4973794;28;20208;-65
2021/03/10 07:12:13;;;;;;;38.97;22.07;;;5.40;99.90;;;;;;4974176;28;20651;-65
2021/03/10 07:14:39;;;;;;;36.57;22.77;;;5.50;99.90;;;;;;4975236;28;20185;-66
2021/03/10 07:17:07;;;;;;;36.10;22.97;;;5.50;99.90;;;;;;4974238;28;20260;-66
2021/03/10 07:19:33;;;;;;;33.77;22.13;;;5.60;99.90;;;;;;4973454;28;20227;-68
2021/03/10 07:22:16;;;;;;;40.57;21.97;;;5.60;99.90;;;;;;4973268;28;20185;-65
2021/03/10 07:24:51;;;;;;;32.20;20.97;;;5.70;99.90;;;;;;4972622;28;20211;-62
2021/03/10 07:27:19;;;;;;;35.73;21.40;;;5.70;99.90;;;;;;4973650;28;20173;-65
2021/03/10 07:29:44;;;;;;;39.07;21.37;;;5.80;99.90;;;;;;4973725;28;20607;-65
2021/03/10 07:32:10;;;;;;;34.80;21.07;;;5.80;99.90;;;;;;4973754;28;20177;-65
2021/03/10 07:34:37;;;;;;;31.63;19.20;;;5.90;99.90;;;;;;4973698;28;20531;-65
2021/03/10 07:37:14;;;;;;;31.37;20.63;;;5.90;99.90;;;;;;4973048;28;20174;-65
2021/03/10 07:39:40;;;;;;;33.00;19.83;;;5.90;99.90;;;;;;4973083;28;20221;-65
2021/03/10 07:42:16;;;;;;;37.17;19.87;;;5.90;99.90;;;;;;4973011;28;20196;-66
2021/03/10 07:44:42;;;;;;;31.73;19.73;;;6.00;99.90;;;;;;4973129;28;20220;-66
2021/03/10 07:47:13;;;;;;;34.63;21.67;;;6.00;99.90;;;;;;4973242;28;20177;-66
2021/03/10 07:49:40;;;;;;;32.03;19.77;;;6.00;99.90;;;;;;4972958;28;20570;-65
2021/03/10 07:52:10;;;;;;;36.10;21.37;;;6.00;99.90;;;;;;4973241;28;20173;-66
2021/03/10 07:54:38;;;;;;;34.43;20.43;;;6.00;99.90;;;;;;4972334;28;20182;-66
2021/03/10 07:57:22;;;;;;;36.20;22.17;;;6.00;99.90;;;;;;4973142;28;20177;-65
2021/03/10 07:59:59;;;;;;;37.17;20.83;;;5.90;99.90;;;;;;4972654;28;20224;-66
2021/03/10 08:02:26;;;;;;;34.57;20.77;;;5.90;99.90;;;;;;4972793;28;20231;-65
2021/03/10 08:05:01;;;;;;;34.23;20.90;;;5.90;99.90;;;;;;4972437;28;20260;-66
2021/03/10 08:07:30;;;;;;;35.47;21.40;;;5.90;99.90;;;;;;4972766;28;20169;-66
2021/03/10 08:09:56;;;;;;;40.30;22.63;;;5.90;99.90;;;;;;4955017;28;20240;-65
2021/03/10 08:12:36;;;;;;;38.23;22.67;;;6.00;99.90;;;;;;4972668;28;20166;-64
2021/03/10 08:15:05;;;;;;;40.83;22.87;;;6.10;99.90;;;;;;4955215;28;20181;-64
2021/03/10 08:17:30;;;;;;;38.03;22.33;;;6.20;99.90;;;;;;4972711;28;20174;-61
2021/03/10 08:19:58;;;;;;;39.87;21.83;;;6.20;99.90;;;;;;4954945;28;20178;-64
2021/03/10 08:22:26;;;;;;;34.03;21.03;;;6.30;99.90;;;;;;4972663;28;20165;-63
2021/03/10 08:24:57;;;;;;;32.27;20.80;;;6.40;99.90;;;;;;4972354;28;20340;-64
2021/03/10 08:27:40;;;;;;;42.37;22.40;;;6.50;99.90;;;;;;4972623;28;20644;-64
2021/03/10 08:30:09;;;;;;;32.80;19.90;;;6.60;99.90;;;;;;4971908;28;20169;-64
2021/03/10 08:32:36;;;;;;;39.33;21.17;;;6.60;99.90;;;;;;4972317;28;20188;-64
2021/03/10 08:35:16;;;;;;;36.80;21.20;;;6.70;99.90;;;;;;4972377;28;20274;-63
2021/03/10 08:37:43;;;;;;;35.37;21.40;;;6.80;99.90;;;;;;4972193;28;20228;-63
2021/03/10 08:40:11;;;;;;;34.30;21.53;;;6.90;99.90;;;;;;4972492;28;20671;-64
2021/03/10 08:42:37;;;;;;;37.67;21.97;;;7.00;99.90;;;;;;4971913;28;20209;-63
2021/03/10 08:45:05;;;;;;;44.00;24.97;;;7.10;99.90;;;;;;4972386;28;20201;-64
2021/03/10 08:47:31;;;;;;;37.87;21.90;;;7.20;99.90;;;;;;4971671;28;20185;-63
2021/03/10 08:49:59;;;;;;;34.10;20.50;;;7.30;99.90;;;;;;4972214;28;20576;-64
2021/03/10 08:52:26;;;;;;;31.80;21.17;;;7.50;99.90;;;;;;4971837;28;20185;-64
2021/03/10 08:54:59;;;;;;;31.83;20.47;;;7.60;99.90;;;;;;4972494;28;20204;-63
2021/03/10 08:57:33;;;;;;;34.70;21.87;;;7.60;99.90;;;;;;4971754;28;20260;-65
2021/03/10 09:00:00;;;;;;;32.93;20.53;;;7.80;99.90;;;;;;4969760;28;20185;-64
2021/03/10 09:02:34;;;;;;;36.00;20.80;;;7.90;99.90;;;;;;4969581;28;20189;-64
2021/03/10 09:05:05;;;;;;;33.27;20.17;;;7.90;99.90;;;;;;4972846;28;20193;-64
2021/03/10 09:07:31;;;;;;;37.93;21.70;;;8.00;99.90;;;;;;4976162;28;20532;-64
2021/03/10 09:10:07;;;;;;;34.27;20.50;;;8.10;99.90;;;;;;4976224;28;20493;-64
2021/03/10 09:12:33;;;;;;;35.87;21.50;;;8.20;99.90;;;;;;4976189;28;20599;-63
2021/03/10 09:14:58;;;;;;;35.93;22.80;;;8.30;99.90;;;;;;4958995;28;20192;-64
2021/03/10 09:17:37;;;;;;;31.63;20.50;;;8.40;99.90;;;;;;4976399;28;20209;-67
2021/03/10 09:20:10;;;;;;;34.27;21.67;;;8.50;99.90;;;;;;4976139;28;20675;-66
2021/03/10 09:22:44;;;;;;;44.53;20.87;;;8.60;99.90;;;;;;4976142;28;20224;-67
2021/03/10 09:25:12;;;;;;;37.43;22.37;;;8.70;99.90;;;;;;4976291;28;20197;-65
2021/03/10 09:27:39;;;;;;;32.93;21.37;;;8.90;99.90;;;;;;4976550;28;20647;-65
2021/03/10 09:30:11;;;;;;;31.90;21.07;;;8.90;99.90;;;;;;4975736;28;20166;-65
2021/03/10 09:32:48;;;;;;;33.30;19.93;;;9.10;99.90;;;;;;4975439;28;20177;-67
2021/03/10 09:35:18;;;;;;;37.70;21.57;;;9.10;99.90;;;;;;4965335;28;20192;-66
2021/03/10 09:37:53;;;;;;;35.73;22.23;;;9.10;99.90;;;;;;4975845;28;20233;-66
2021/03/10 09:40:22;;;;;;;33.37;21.70;;;9.20;99.90;;;;;;4975779;28;20185;-66
2021/03/10 09:42:58;;;;;;;33.93;22.10;;;9.30;99.90;;;;;;4975828;28;20706;-67
2021/03/10 09:45:26;;;;;;;31.93;20.63;;;9.30;99.90;;;;;;4975816;28;20205;-66
2021/03/10 09:47:52;;;;;;;32.47;22.20;;;9.40;99.90;;;;;;4975782;28;20202;-65
2021/03/10 09:50:26;;;;;;;31.17;20.37;;;9.50;99.90;;;;;;4975440;28;20176;-66
2021/03/10 09:52:52;;;;;;;30.80;19.77;;;9.50;99.90;;;;;;4975909;28;20578;-65
2021/03/10 09:55:21;;;;;;;33.70;22.03;;;9.70;99.90;;;;;;4976005;28;20177;-65
2021/03/10 09:57:47;;;;;;;32.17;20.90;;;9.70;99.90;;;;;;4976367;28;20201;-63
2021/03/10 10:00:22;;;;;;;33.13;21.23;;;9.70;99.90;;;;;;4975029;28;20170;-65
2021/03/10 10:02:48;;;;;;;34.50;20.97;;;9.70;99.90;;;;;;4974866;28;20187;-64
2021/03/10 10:05:22;;;;;;;37.77;21.07;;;9.80;99.90;;;;;;4975071;28;20201;-64
2021/03/10 10:07:49;;;;;;;32.90;20.57;;;10.00;99.90;;;;;;4974952;28;20560;-65
2021/03/10 10:10:14;;;;;;;31.17;20.17;;;10.10;99.90;;;;;;4974769;28;20198;-65
2021/03/10 10:12:48;;;;;;;35.23;21.73;;;10.30;99.90;;;;;;4975746;28;20174;-66
2021/03/10 10:15:17;;;;;;;33.40;21.17;;;10.40;99.90;;;;;;4975849;28;20173;-65
2021/03/10 10:17:50;;;;;;;32.87;21.40;;;10.70;99.90;;;;;;4977136;28;20471;-65
2021/03/10 10:20:19;;;;;;;31.30;20.60;;;11.00;99.90;;;;;;4975003;28;20177;-64
2021/03/10 10:22:45;;;;;;;33.90;20.30;;;11.30;99.90;;;;;;4974687;28;20601;-64
2021/03/10 10:25:12;;;;;;;29.67;19.90;;;11.70;99.90;;;;;;4974602;28;20197;-65
2021/03/10 10:27:41;;;;;;;26.57;18.27;;;12.00;99.90;;;;;;4974804;28;20216;-64
2021/03/10 10:30:07;;;;;;;27.87;18.40;;;12.30;99.90;;;;;;4973776;28;20165;-63
2021/03/10 10:32:33;;;;;;;26.03;15.40;;;12.60;99.90;;;;;;4957129;28;20213;-64
2021/03/10 10:34:59;;;;;;;21.73;15.13;;;12.70;99.90;;;;;;4974330;28;20216;-64
2021/03/10 10:37:24;;;;;;;21.17;14.40;;;12.60;99.90;;;;;;4973814;28;20212;-64
2021/03/10 10:39:50;;;;;;;22.17;14.67;;;12.60;99.90;;;;;;4974435;28;20296;-63
2021/03/10 10:42:17;;;;;;;21.87;14.37;;;12.50;99.90;;;;;;4974016;28;20208;-64
2021/03/10 10:44:43;;;;;;;20.17;13.83;;;12.60;99.90;;;;;;4974457;28;20232;-65
2021/03/10 10:47:09;;;;;;;18.77;13.03;;;12.50;99.90;;;;;;4973757;28;20189;-63
2021/03/10 10:49:34;;;;;;;23.63;15.07;;;12.40;99.90;;;;;;4974300;28;20193;-64
2021/03/10 10:52:00;;;;;;;26.50;16.53;;;12.20;99.90;;;;;;4969615;28;20236;-64
2021/03/10 10:54:25;;;;;;;23.30;16.67;;;12.10;99.90;;;;;;4974208;28;20201;-63
2021/03/10 10:56:51;;;;;;;25.03;17.13;;;12.20;99.90;;;;;;4974202;28;20201;-63
2021/03/10 10:59:17;;;;;;;23.13;15.30;;;12.30;99.90;;;;;;4954789;29;20206;-63
2021/03/10 11:01:44;;;;;;;17.37;13.00;;;12.40;99.90;;;;;;4954395;29;20178;-65
2021/03/10 11:04:10;;;;;;;18.67;13.33;;;12.60;99.90;;;;;;4956659;28;20281;-65
2021/03/10 11:06:36;;;;;;;19.00;12.63;;;12.70;99.90;;;;;;4974126;28;20588;-64
2021/03/10 11:09:02;;;;;;;19.00;12.90;;;13.00;99.90;;;;;;4973966;28;20201;-64
2021/03/10 11:11:27;;;;;;;19.77;13.37;;;13.10;99.90;;;;;;4973392;28;20220;-64
2021/03/10 11:13:53;;;;;;;16.13;12.27;;;13.00;99.90;;;;;;4974274;28;20746;-63
2021/03/10 11:16:18;;;;;;;18.87;14.73;;;13.00;99.90;;;;;;4973832;28;20180;-64
2021/03/10 11:18:44;;;;;;;18.43;14.33;;;13.10;99.90;;;;;;4974024;28;20553;-64
2021/03/10 11:21:09;;;;;;;18.93;14.03;;;13.20;99.90;;;;;;4973444;28;20182;-64
2021/03/10 11:23:35;;;;;;;18.13;12.10;;;13.30;99.90;;;;;;4956119;28;20220;-65
2021/03/10 11:26:01;;;;;;;19.40;13.10;;;13.40;99.90;;;;;;4956300;28;20181;-66
2021/03/10 11:28:27;;;;;;;19.40;13.37;;;13.30;99.90;;;;;;4972681;28;20189;-65
2021/03/10 11:30:53;;;;;;;16.23;11.70;;;13.30;99.90;;;;;;4972938;28;20670;-65
2021/03/10 11:33:19;;;;;;;18.53;12.67;;;13.30;99.90;;;;;;4973446;28;20182;-66
2021/03/10 11:35:44;;;;;;;19.80;11.37;;;13.30;99.90;;;;;;4974104;28;20166;-65
2021/03/10 11:38:10;;;;;;;15.43;10.47;;;13.20;99.90;;;;;;4973278;28;20213;-65
2021/03/10 11:40:37;;;;;;;15.53;9.80;;;13.50;99.90;;;;;;4973056;28;20185;-64
2021/03/10 11:43:03;;;;;;;10.70;8.20;;;13.90;99.90;;;;;;4973512;28;20554;-67
2021/03/10 11:45:28;;;;;;;10.90;7.53;;;14.20;99.90;;;;;;4955672;28;20594;-67
2021/03/10 11:47:54;;;;;;;9.47;6.67;;;14.40;99.90;;;;;;4973498;28;20189;-67
2021/03/10 11:50:27;;;;;;;9.33;6.63;;;14.40;99.90;;;;;;5088535;28;20525;-65
2021/03/10 11:52:53;;;;;;;8.27;6.63;;;14.30;99.90;;;;;;5089032;28;20216;-65
2021/03/10 11:55:18;;;;;;;10.13;7.60;;;14.30;99.90;;;;;;5088637;28;20170;-65
2021/03/10 11:57:44;;;;;;;8.20;5.80;;;14.40;99.90;;;;;;5088716;28;20162;-65
2021/03/10 12:00:11;;;;;;;7.33;5.83;;;14.60;99.90;;;;;;5088278;28;20538;-65
2021/03/10 12:02:36;;;;;;;7.17;5.77;;;14.40;99.90;;;;;;5088403;28;20893;-66
2021/03/10 12:05:03;;;;;;;7.30;6.00;;;14.10;99.90;;;;;;5088859;28;20252;-65
2021/03/10 12:07:29;;;;;;;7.77;5.70;;;14.00;99.90;;;;;;5088082;28;20177;-64
2021/03/10 12:09:54;;;;;;;9.60;6.90;;;14.00;99.90;;;;;;5088201;28;20205;-66
2021/03/10 12:12:20;;;;;;;12.57;6.30;;;14.20;99.90;;;;;;5088440;28;20299;-65
2021/03/10 12:14:46;;;;;;;10.43;6.90;;;14.20;99.90;;;;;;5088369;28;20215;-65
2021/03/10 12:17:12;;;;;;;9.47;7.00;;;14.10;99.90;;;;;;5087754;28;20260;-67
2021/03/10 12:19:38;;;;;;;10.30;6.60;;;14.10;99.90;;;;;;5088132;28;20276;-64
2021/03/10 12:22:07;;;;;;;8.67;6.47;;;14.20;99.90;;;;;;5086105;28;20185;-64
2021/03/10 12:24:33;;;;;;;9.57;6.80;;;14.20;99.90;;;;;;5086326;28;20189;-63
2021/03/10 12:26:59;;;;;;;8.70;5.97;;;13.90;99.90;;;;;;5088338;28;20204;-64
2021/03/10 12:29:25;;;;;;;8.80;6.60;;;13.80;99.90;;;;;;5074712;28;20213;-63
2021/03/10 12:31:50;;;;;;;11.00;6.80;;;13.70;99.90;;;;;;5066233;28;20229;-64
2021/03/10 12:34:16;;;;;;;12.47;6.47;;;13.80;99.90;;;;;;5081913;28;20185;-63
2021/03/10 12:36:41;;;;;;;9.73;6.87;;;14.00;99.90;;;;;;5087970;28;20174;-64
2021/03/10 12:39:07;;;;;;;8.13;5.83;;;14.10;99.90;;;;;;5084972;28;20205;-63
2021/03/10 12:41:33;;;;;;;8.37;6.07;;;14.20;99.90;;;;;;5087009;28;20261;-64
2021/03/10 12:44:00;;;;;;;8.83;6.37;;;14.40;99.90;;;;;;5077107;28;20607;-64